Time;durP1;ratioP1;P1;durP2;ratioP2;P2;SDS_P1;SDS_P2;PMS_P1;PMS_P2;Temp;Humidity;BMP_temperature;BMP_pressure;BME280_temperature;BME280_humidity;BME280_pressure;Samples;Min_cycle;Max_cycle;Signal;HPM_P1;HPM_P2
2024/01/20 00:01:56;;;;;;;20.33;7.33;;;-3.60;99.90;;;;;;4212535;28;20447;-76
2024/01/20 00:03:58;;;;;;;19.53;7.57;;;-3.60;99.90;;;;;;4210887;28;20447;-75
2024/01/20 00:05:59;;;;;;;21.27;8.30;;;-3.60;99.90;;;;;;4211654;28;20979;-76
2024/01/20 00:08:04;;;;;;;20.63;7.35;;;-3.60;99.90;;;;;;4211783;28;20552;-75
2024/01/20 00:10:10;;;;;;;22.20;8.23;;;-3.50;99.90;;;;;;4195114;28;20217;-76
2024/01/20 00:12:12;;;;;;;25.43;7.80;;;-3.70;99.90;;;;;;4207902;28;20225;-75
2024/01/20 00:14:16;;;;;;;22.02;7.85;;;-3.70;99.90;;;;;;4207744;28;20604;-75
2024/01/20 00:16:18;;;;;;;20.88;7.50;;;-3.70;99.90;;;;;;4209950;28;20225;-75
2024/01/20 00:18:20;;;;;;;21.02;8.20;;;-3.70;99.90;;;;;;4193381;28;20230;-75
2024/01/20 00:20:24;;;;;;;23.17;8.50;;;-3.40;99.90;;;;;;4211347;28;20217;-75
2024/01/20 00:22:25;;;;;;;22.23;7.80;;;-3.70;99.90;;;;;;4211410;28;20450;-75
2024/01/20 00:24:27;;;;;;;24.70;8.43;;;-3.70;99.90;;;;;;4213679;28;20860;-75
2024/01/20 00:26:32;;;;;;;24.57;8.17;;;-3.70;99.90;;;;;;4189536;28;20455;-74
2024/01/20 00:28:34;;;;;;;23.03;8.77;;;-3.70;99.90;;;;;;4209528;28;20558;-75
2024/01/20 00:30:37;;;;;;;19.47;8.33;;;-3.80;99.90;;;;;;4212757;28;20451;-75
2024/01/20 00:32:39;;;;;;;20.73;7.33;;;-3.70;99.90;;;;;;4212170;28;20507;-75
2024/01/20 00:34:41;;;;;;;24.47;8.20;;;-3.80;99.90;;;;;;4208142;28;20447;-75
2024/01/20 00:36:43;;;;;;;26.37;8.67;;;-2.60;99.90;;;;;;4211818;28;20534;-75
2024/01/20 00:38:45;;;;;;;25.90;8.15;;;-3.80;99.90;;;;;;4209785;28;20451;-75
2024/01/20 00:40:47;;;;;;;23.58;9.23;;;-3.80;99.90;;;;;;4203620;28;20280;-76
2024/01/20 00:42:48;;;;;;;24.10;7.90;;;-3.80;99.90;;;;;;4211456;28;20217;-75
2024/01/20 00:44:51;;;;;;;27.37;8.50;;;-3.80;99.90;;;;;;4194014;28;20452;-75
2024/01/20 00:46:55;;;;;;;21.73;7.95;;;-3.60;99.90;;;;;;4212873;28;20507;-75
2024/01/20 00:48:57;;;;;;;19.57;7.83;;;-3.80;99.90;;;;;;4196738;28;20244;-75
2024/01/20 00:50:58;;;;;;;19.57;7.47;;;-3.80;99.90;;;;;;4212149;28;20447;-75
2024/01/20 00:53:00;;;;;;;21.30;7.23;;;-3.80;99.90;;;;;;4211721;28;20493;-75
2024/01/20 00:55:03;;;;;;;20.87;8.17;;;-3.80;99.90;;;;;;4209472;28;20447;-75
2024/01/20 00:57:04;;;;;;;17.10;7.97;;;-3.80;99.90;;;;;;4190563;28;20461;-74
2024/01/20 00:59:06;;;;;;;19.47;7.07;;;-3.80;99.90;;;;;;4211097;28;20446;-74
2024/01/20 01:01:08;;;;;;;19.57;7.53;;;-3.80;99.90;;;;;;4210747;28;20482;-74
2024/01/20 01:03:11;;;;;;;19.60;8.37;;;-3.80;99.90;;;;;;4212673;28;20524;-74
2024/01/20 01:05:12;;;;;;;20.47;7.67;;;-3.80;99.90;;;;;;4208653;28;20470;-73
2024/01/20 01:07:14;;;;;;;20.73;8.40;;;-3.80;99.90;;;;;;4212696;28;20897;-74
2024/01/20 01:09:16;;;;;;;23.40;8.57;;;-3.30;99.90;;;;;;4210993;28;20212;-74
2024/01/20 01:11:18;;;;;;;21.00;8.57;;;-3.80;99.90;;;;;;4210481;28;20527;-74
2024/01/20 01:13:20;;;;;;;26.30;8.48;;;-3.80;99.90;;;;;;4211447;28;20447;-74
2024/01/20 01:15:22;;;;;;;20.17;8.47;;;-3.80;99.90;;;;;;4211395;28;20216;-74
2024/01/20 01:17:24;;;;;;;19.83;7.70;;;-3.80;99.90;;;;;;4193689;28;20476;-73
2024/01/20 01:19:28;;;;;;;26.37;8.03;;;-3.70;99.90;;;;;;4210233;28;20512;-74
2024/01/20 01:21:30;;;;;;;25.17;8.63;;;-3.80;99.90;;;;;;4210614;28;20447;-73
2024/01/20 01:23:32;;;;;;;21.47;7.90;;;-3.80;99.90;;;;;;4208525;28;20446;-74
2024/01/20 01:25:33;;;;;;;21.35;8.13;;;-3.80;99.90;;;;;;4211647;28;20479;-74
2024/01/20 01:27:35;;;;;;;23.27;7.93;;;-3.80;99.90;;;;;;4209378;28;20691;-73
2024/01/20 01:29:36;;;;;;;20.37;8.10;;;-3.80;99.90;;;;;;4209633;28;20451;-74
2024/01/20 01:31:38;;;;;;;21.70;8.17;;;-3.70;99.90;;;;;;4193089;28;20448;-74
2024/01/20 01:33:40;;;;;;;22.10;8.17;;;-3.70;99.90;;;;;;4211883;28;20442;-74
2024/01/20 01:35:44;;;;;;;16.17;6.85;;;-3.70;99.90;;;;;;4210047;28;20504;-74
2024/01/20 01:37:45;;;;;;;19.45;7.22;;;-3.80;99.90;;;;;;4190334;28;20226;-74
2024/01/20 01:39:47;;;;;;;23.03;7.73;;;-3.70;99.90;;;;;;4208551;28;20228;-74
2024/01/20 01:41:49;;;;;;;21.17;6.87;;;-3.70;99.90;;;;;;4210091;28;21241;-74
2024/01/20 01:43:51;;;;;;;14.63;5.93;;;-3.70;99.90;;;;;;4210207;28;20502;-74
2024/01/20 01:45:53;;;;;;;16.37;6.07;;;-3.70;99.90;;;;;;4211081;28;20504;-75
2024/01/20 01:47:56;;;;;;;15.40;6.63;;;-3.70;99.90;;;;;;4210093;28;20522;-73
2024/01/20 01:49:58;;;;;;;23.83;6.70;;;-3.70;99.90;;;;;;4189621;28;20472;-73
2024/01/20 01:52:01;;;;;;;18.60;6.00;;;-3.70;99.90;;;;;;4209020;28;20455;-73
2024/01/20 01:54:04;;;;;;;19.97;6.57;;;-3.70;99.90;;;;;;4194752;28;20447;-74
2024/01/20 01:56:07;;;;;;;18.63;6.73;;;-3.80;99.90;;;;;;4213879;28;20912;-74
2024/01/20 01:58:09;;;;;;;17.37;6.53;;;-3.80;99.90;;;;;;4211910;28;20467;-74
2024/01/20 02:00:11;;;;;;;13.87;5.63;;;-3.80;99.90;;;;;;4191246;28;20444;-74
2024/01/20 02:02:13;;;;;;;19.30;6.22;;;-3.80;99.90;;;;;;4195718;28;20460;-75
2024/01/20 02:04:15;;;;;;;17.17;6.17;;;-3.80;99.90;;;;;;4213926;28;20237;-73
2024/01/20 02:06:18;;;;;;;16.30;6.20;;;-3.80;99.90;;;;;;4212963;28;20487;-75
2024/01/20 02:08:23;;;;;;;18.67;6.32;;;-3.80;99.90;;;;;;4215189;28;20529;-74
2024/01/20 02:10:25;;;;;;;17.60;6.80;;;-3.80;99.90;;;;;;4213806;28;20213;-74
2024/01/20 02:12:30;;;;;;;19.07;5.97;;;-3.80;99.90;;;;;;4212149;28;20448;-74
2024/01/20 02:14:35;;;;;;;14.93;5.70;;;-3.80;99.90;;;;;;4212220;28;20511;-74
2024/01/20 02:16:39;;;;;;;19.93;5.90;;;-3.90;99.90;;;;;;4212674;28;21146;-74
2024/01/20 02:18:40;;;;;;;16.25;6.25;;;-3.90;99.90;;;;;;4212801;28;20463;-74
2024/01/20 02:20:42;;;;;;;17.83;6.00;;;-3.90;99.90;;;;;;4213386;28;20205;-74
2024/01/20 02:22:46;;;;;;;16.70;5.83;;;-3.40;99.90;;;;;;4215463;28;20946;-74
2024/01/20 02:24:49;;;;;;;15.63;5.93;;;-3.40;99.90;;;;;;4195678;28;20444;-74
2024/01/20 02:26:51;;;;;;;16.27;5.88;;;-3.90;99.90;;;;;;4212550;28;20205;-73
2024/01/20 02:28:53;;;;;;;13.98;5.60;;;-3.80;99.90;;;;;;4212663;28;20229;-73
2024/01/20 02:30:55;;;;;;;17.63;5.80;;;-3.80;99.90;;;;;;4195413;28;20214;-74
2024/01/20 02:32:57;;;;;;;16.77;5.70;;;-3.10;99.90;;;;;;4195212;28;20492;-74
2024/01/20 02:34:59;;;;;;;15.57;5.27;;;-3.80;99.90;;;;;;4213905;28;20486;-75
2024/01/20 02:37:00;;;;;;;16.00;5.70;;;-3.80;99.90;;;;;;4213338;28;20470;-74
2024/01/20 02:39:03;;;;;;;16.00;5.60;;;-3.80;99.90;;;;;;4212783;28;20442;-74
2024/01/20 02:41:05;;;;;;;14.43;4.83;;;-3.80;99.90;;;;;;4213815;28;20513;-74
2024/01/20 02:43:07;;;;;;;14.50;5.90;;;-3.80;99.90;;;;;;4195288;28;20448;-73
2024/01/20 02:45:09;;;;;;;22.15;5.45;;;-3.80;99.90;;;;;;4194581;28;20463;-73
2024/01/20 02:47:11;;;;;;;14.77;5.30;;;-3.80;99.90;;;;;;4211316;28;20260;-73
2024/01/20 02:49:13;;;;;;;13.73;5.27;;;-3.80;99.90;;;;;;4213003;28;20522;-73
2024/01/20 02:51:14;;;;;;;12.60;4.97;;;-3.80;99.90;;;;;;4213265;28;21302;-74
2024/01/20 02:53:16;;;;;;;17.00;5.20;;;-3.80;99.90;;;;;;4211877;28;20455;-73
2024/01/20 02:55:19;;;;;;;17.02;5.18;;;-3.80;99.90;;;;;;4211879;28;20258;-73
2024/01/20 02:57:21;;;;;;;14.45;5.10;;;-3.70;99.90;;;;;;4212750;28;20328;-74
2024/01/20 02:59:23;;;;;;;12.93;5.13;;;-3.70;99.90;;;;;;4212233;28;20259;-75
2024/01/20 03:01:25;;;;;;;11.98;4.97;;;-3.80;99.90;;;;;;4213206;28;20451;-74
2024/01/20 03:03:27;;;;;;;11.77;4.55;;;-3.80;99.90;;;;;;4211742;28;20692;-74
2024/01/20 03:05:29;;;;;;;15.80;5.28;;;-3.80;99.90;;;;;;4212264;28;20200;-74
2024/01/20 03:07:31;;;;;;;13.52;5.35;;;-3.80;99.90;;;;;;4214058;28;20263;-75
2024/01/20 03:09:33;;;;;;;12.07;5.03;;;-3.90;99.90;;;;;;4195106;28;20233;-73
2024/01/20 03:11:36;;;;;;;14.32;5.15;;;-3.80;99.90;;;;;;4209061;28;20447;-73
2024/01/20 03:13:38;;;;;;;13.53;4.60;;;-3.90;99.90;;;;;;4211287;28;20224;-74
2024/01/20 03:15:40;;;;;;;10.30;4.57;;;-3.90;99.90;;;;;;4191351;28;20514;-73
2024/01/20 03:17:42;;;;;;;12.07;5.03;;;-3.90;99.90;;;;;;4210457;28;20540;-74
2024/01/20 03:19:43;;;;;;;15.13;4.70;;;-3.90;99.90;;;;;;4204192;28;20982;-74
2024/01/20 03:21:46;;;;;;;12.52;4.40;;;-3.90;99.90;;;;;;4211228;28;20531;-74
2024/01/20 03:23:46;;;;;;;11.98;4.50;;;-3.90;99.90;;;;;;4213036;28;20205;-75
2024/01/20 03:25:48;;;;;;;13.20;4.57;;;-3.90;99.90;;;;;;4208688;28;20201;-73
2024/01/20 03:27:54;;;;;;;11.27;5.87;;;-3.80;99.90;;;;;;4210769;28;20324;-74
2024/01/20 03:29:54;;;;;;;12.30;4.43;;;-3.60;99.90;;;;;;4213341;28;20470;-73
2024/01/20 03:31:57;;;;;;;13.30;4.67;;;-3.80;99.90;;;;;;4212466;28;20446;-73
2024/01/20 03:33:59;;;;;;;10.10;4.40;;;-3.80;99.90;;;;;;4190896;28;20233;-74
2024/01/20 03:36:00;;;;;;;13.85;4.80;;;-3.80;99.90;;;;;;4212706;28;20500;-74
2024/01/20 03:38:02;;;;;;;11.77;4.43;;;-3.80;99.90;;;;;;4212410;28;20216;-74
2024/01/20 03:40:05;;;;;;;13.67;4.93;;;-3.80;99.90;;;;;;4211047;28;20677;-74
2024/01/20 03:42:07;;;;;;;10.77;4.80;;;-3.80;99.90;;;;;;4213302;28;20456;-74
2024/01/20 03:44:10;;;;;;;11.52;4.93;;;-3.80;99.90;;;;;;4211575;28;20538;-73
2024/01/20 03:46:11;;;;;;;16.17;4.97;;;-3.80;99.90;;;;;;4211278;28;20232;-75
2024/01/20 03:48:13;;;;;;;11.67;4.40;;;-3.80;99.90;;;;;;4191088;28;21124;-74
2024/01/20 03:50:15;;;;;;;14.33;4.97;;;-3.80;99.90;;;;;;4209052;28;20291;-74
2024/01/20 03:52:17;;;;;;;18.43;5.07;;;-3.80;99.90;;;;;;4213764;28;20458;-73
2024/01/20 03:54:19;;;;;;;12.33;5.23;;;-3.70;99.90;;;;;;4190967;28;21329;-73
2024/01/20 03:56:21;;;;;;;15.40;4.85;;;-3.80;99.90;;;;;;4189222;28;20448;-75
2024/01/20 03:58:22;;;;;;;8.90;4.13;;;-3.60;99.90;;;;;;4209573;28;20225;-74
2024/01/20 04:00:25;;;;;;;11.90;4.80;;;-3.80;99.90;;;;;;4197130;28;20727;-74
2024/01/20 04:02:28;;;;;;;15.33;5.27;;;-3.70;99.90;;;;;;4207043;28;20233;-75
2024/01/20 04:04:31;;;;;;;14.85;5.55;;;-3.80;99.90;;;;;;4207934;28;20938;-74
2024/01/20 04:06:32;;;;;;;11.50;5.17;;;-3.00;99.90;;;;;;4207015;28;20205;-74
2024/01/20 04:08:34;;;;;;;11.83;4.70;;;-3.70;99.90;;;;;;4211919;28;20483;-74
2024/01/20 04:10:36;;;;;;;14.10;5.17;;;-3.70;99.90;;;;;;4208759;28;20534;-74
2024/01/20 04:12:39;;;;;;;16.25;5.32;;;-3.70;99.90;;;;;;4209854;28;20459;-74
2024/01/20 04:14:41;;;;;;;14.32;5.25;;;-3.70;99.90;;;;;;4190916;28;20236;-74
2024/01/20 04:16:45;;;;;;;11.43;4.33;;;-3.70;99.90;;;;;;4210237;28;20205;-74
2024/01/20 04:18:46;;;;;;;14.83;5.03;;;-3.70;99.90;;;;;;4210452;28;20462;-74
2024/01/20 04:20:48;;;;;;;13.03;5.00;;;-3.50;99.90;;;;;;4211644;28;20523;-74
2024/01/20 04:22:49;;;;;;;12.00;4.57;;;-3.60;99.90;;;;;;4191866;28;20514;-74
2024/01/20 04:24:52;;;;;;;10.60;4.85;;;-3.60;99.90;;;;;;4209430;28;20929;-74
2024/01/20 04:26:54;;;;;;;12.47;4.77;;;-3.60;99.90;;;;;;4210729;28;20201;-74
2024/01/20 04:28:56;;;;;;;12.48;4.65;;;-3.60;99.90;;;;;;4205854;28;20474;-74
2024/01/20 04:30:58;;;;;;;9.17;4.50;;;-3.60;99.90;;;;;;4210181;28;20206;-74
2024/01/20 04:33:00;;;;;;;12.93;4.70;;;-3.70;99.90;;;;;;4191513;28;20462;-74
2024/01/20 04:35:02;;;;;;;10.18;4.22;;;-3.60;99.90;;;;;;4193731;28;20531;-75
2024/01/20 04:37:04;;;;;;;12.82;4.90;;;-3.70;99.90;;;;;;4209561;28;20228;-74
2024/01/20 04:39:06;;;;;;;12.07;4.93;;;-3.70;99.90;;;;;;4187046;28;20864;-78
2024/01/20 04:41:08;;;;;;;12.07;4.50;;;-3.70;99.90;;;;;;4210365;28;20250;-78
2024/01/20 04:43:12;;;;;;;14.20;5.47;;;-3.70;99.90;;;;;;4210750;28;20547;-78
2024/01/20 04:45:15;;;;;;;11.73;4.80;;;-3.70;99.90;;;;;;4191029;28;21048;-77
2024/01/20 04:47:17;;;;;;;11.32;5.05;;;-3.70;99.90;;;;;;4195134;28;20261;-74
2024/01/20 04:49:20;;;;;;;14.73;5.25;;;-3.80;99.90;;;;;;4211082;28;20232;-75
2024/01/20 04:51:21;;;;;;;13.77;5.37;;;-3.70;99.90;;;;;;4210483;28;20602;-75
2024/01/20 04:53:23;;;;;;;15.93;5.00;;;-3.80;99.90;;;;;;4211265;28;20446;-76
2024/01/20 04:55:25;;;;;;;10.93;4.50;;;-3.80;99.90;;;;;;4208309;28;20468;-79
2024/01/20 04:57:27;;;;;;;8.27;4.35;;;-3.80;99.90;;;;;;4190145;28;20468;-77
2024/01/20 04:59:29;;;;;;;13.80;4.53;;;-3.80;99.90;;;;;;4209985;28;20200;-75
2024/01/20 05:01:33;;;;;;;12.50;4.63;;;-3.80;99.90;;;;;;4209145;28;20262;-78
2024/01/20 05:03:35;;;;;;;10.68;4.57;;;-3.80;99.90;;;;;;4194763;28;20284;-75
2024/01/20 05:05:39;;;;;;;11.53;4.67;;;-3.80;99.90;;;;;;4210409;28;20201;-76
2024/01/20 05:07:41;;;;;;;11.47;4.73;;;-3.80;99.90;;;;;;4206917;28;20466;-74
2024/01/20 05:09:42;;;;;;;10.27;4.45;;;-3.80;99.90;;;;;;4204235;28;20479;-74
2024/01/20 05:11:44;;;;;;;18.67;5.03;;;-3.80;99.90;;;;;;4211230;28;20200;-75
2024/01/20 05:13:46;;;;;;;12.13;5.03;;;-3.80;99.90;;;;;;4207966;28;20244;-75
2024/01/20 05:15:49;;;;;;;10.82;4.20;;;-3.80;99.90;;;;;;4200980;28;20595;-77
2024/01/20 05:17:50;;;;;;;12.05;4.40;;;-3.90;99.90;;;;;;4210021;28;20223;-75
2024/01/20 05:19:52;;;;;;;15.13;4.40;;;-3.90;99.90;;;;;;4209081;28;20201;-74
2024/01/20 05:21:56;;;;;;;10.65;4.70;;;-3.80;99.90;;;;;;4211613;28;20443;-75
2024/01/20 05:23:58;;;;;;;10.95;3.78;;;-3.80;99.90;;;;;;4210325;28;20220;-74
2024/01/20 05:26:00;;;;;;;9.50;4.40;;;-3.90;99.90;;;;;;4208803;28;20204;-74
2024/01/20 05:28:01;;;;;;;13.03;4.40;;;-3.90;99.90;;;;;;4210516;28;20550;-74
2024/01/20 05:30:04;;;;;;;15.60;5.32;;;-3.90;99.90;;;;;;4212650;28;20993;-75
2024/01/20 05:32:06;;;;;;;15.33;4.97;;;-3.90;99.90;;;;;;4212636;28;20219;-74
2024/01/20 05:34:08;;;;;;;9.32;4.03;;;-3.70;99.90;;;;;;4212007;28;20969;-75
2024/01/20 05:36:12;;;;;;;10.15;4.63;;;-3.90;99.90;;;;;;4212470;28;20216;-74
2024/01/20 05:38:15;;;;;;;11.43;4.50;;;-3.80;99.90;;;;;;4214410;28;20224;-74
2024/01/20 05:40:17;;;;;;;12.40;4.75;;;-3.80;99.90;;;;;;4214157;28;20773;-74
2024/01/20 05:42:19;;;;;;;11.05;4.72;;;-3.60;99.90;;;;;;4212887;28;20202;-74
2024/01/20 05:44:21;;;;;;;11.82;5.05;;;-3.80;99.90;;;;;;4198179;28;20252;-74
2024/01/20 05:46:23;;;;;;;12.95;4.45;;;-3.80;99.90;;;;;;4211724;28;20198;-75
2024/01/20 05:48:25;;;;;;;13.02;4.68;;;-3.80;99.90;;;;;;4209039;28;20252;-74
2024/01/20 05:50:27;;;;;;;10.52;4.45;;;-3.80;99.90;;;;;;4207572;28;20206;-74
2024/01/20 05:52:29;;;;;;;10.52;4.95;;;-3.80;99.90;;;;;;4216430;28;20209;-75
2024/01/20 05:54:32;;;;;;;13.20;5.10;;;-3.80;99.90;;;;;;4214257;28;20209;-74
2024/01/20 05:56:34;;;;;;;11.20;4.60;;;-3.80;99.90;;;;;;4213675;28;20197;-73
2024/01/20 05:58:36;;;;;;;11.75;4.75;;;-3.80;99.90;;;;;;4212485;28;20342;-75
2024/01/20 06:00:38;;;;;;;9.27;3.97;;;-3.80;99.90;;;;;;4213024;28;20205;-75
2024/01/20 06:02:40;;;;;;;10.87;4.03;;;-3.60;99.90;;;;;;4196641;28;20724;-75
2024/01/20 06:04:42;;;;;;;12.90;4.53;;;-3.80;99.90;;;;;;4214125;28;20523;-74
2024/01/20 06:06:44;;;;;;;10.15;4.40;;;-3.80;99.90;;;;;;4210432;28;20451;-74
2024/01/20 06:08:46;;;;;;;16.43;4.90;;;-3.80;99.90;;;;;;4210429;28;20197;-75
2024/01/20 06:10:48;;;;;;;15.07;5.00;;;-3.80;99.90;;;;;;4210447;28;20479;-76
2024/01/20 06:12:50;;;;;;;13.63;5.27;;;-3.80;99.90;;;;;;4211013;28;20197;-74
2024/01/20 06:14:52;;;;;;;13.47;5.30;;;-3.80;99.90;;;;;;4195264;28;20498;-75
2024/01/20 06:16:53;;;;;;;12.87;5.17;;;-3.80;99.90;;;;;;4186824;28;20455;-75
2024/01/20 06:18:55;;;;;;;13.83;5.33;;;-3.80;99.90;;;;;;4213438;28;20477;-75
2024/01/20 06:20:59;;;;;;;14.48;4.85;;;-3.80;99.90;;;;;;4214101;28;20451;-75
2024/01/20 06:23:01;;;;;;;14.15;5.07;;;-3.80;99.90;;;;;;4215809;28;20209;-74
2024/01/20 06:25:03;;;;;;;11.07;4.60;;;-3.80;99.90;;;;;;4212409;28;20240;-75
2024/01/20 06:27:07;;;;;;;11.63;4.90;;;-3.70;99.90;;;;;;4213913;28;20471;-75
2024/01/20 06:29:09;;;;;;;12.77;5.03;;;-3.80;99.90;;;;;;4213993;28;20565;-75
2024/01/20 06:31:20;;;;;;;13.30;5.10;;;-3.80;99.90;;;;;;4213169;28;20958;-74
2024/01/20 06:33:22;;;;;;;16.57;4.70;;;-3.80;99.90;;;;;;4210676;28;20530;-74
2024/01/20 06:35:23;;;;;;;15.50;4.85;;;-3.80;99.90;;;;;;4194290;28;20499;-74
2024/01/20 06:37:25;;;;;;;12.95;5.70;;;-3.80;99.90;;;;;;4214920;28;20225;-77
2024/01/20 06:39:27;;;;;;;12.40;4.93;;;-3.80;99.90;;;;;;4212386;28;20201;-74
2024/01/20 06:41:29;;;;;;;14.90;5.75;;;-3.70;99.90;;;;;;4211825;28;20233;-75
2024/01/20 06:43:31;;;;;;;15.23;5.23;;;-3.30;99.90;;;;;;4193660;28;20197;-75
2024/01/20 06:45:34;;;;;;;11.52;5.20;;;-3.80;99.90;;;;;;4214163;28;20455;-75
2024/01/20 06:47:36;;;;;;;14.23;5.07;;;-3.80;99.90;;;;;;4212559;28;20229;-75
2024/01/20 06:49:39;;;;;;;13.77;4.67;;;-3.80;99.90;;;;;;4210854;28;20592;-75
2024/01/20 06:51:43;;;;;;;11.63;4.80;;;-3.80;99.90;;;;;;4208628;28;20519;-74
2024/01/20 06:53:45;;;;;;;17.57;5.83;;;-3.80;99.90;;;;;;4213203;28;20463;-74
2024/01/20 06:55:46;;;;;;;11.40;4.60;;;-3.80;99.90;;;;;;4212255;28;20526;-75
2024/01/20 06:57:48;;;;;;;11.30;5.30;;;-3.80;99.90;;;;;;4213767;28;20467;-75
2024/01/20 06:59:51;;;;;;;12.67;5.00;;;-3.80;99.90;;;;;;4212907;28;20649;-74
2024/01/20 07:01:53;;;;;;;10.43;4.80;;;-3.90;99.90;;;;;;4212149;28;20518;-74
2024/01/20 07:03:55;;;;;;;11.17;4.43;;;-3.90;99.90;;;;;;4211262;28;20537;-75
2024/01/20 07:05:59;;;;;;;17.25;5.35;;;-3.90;99.90;;;;;;4211406;28;20475;-75
2024/01/20 07:08:01;;;;;;;12.73;3.87;;;-3.90;99.90;;;;;;4195807;28;20270;-74
2024/01/20 07:10:04;;;;;;;12.50;4.47;;;-3.90;99.90;;;;;;4200110;28;20488;-74
2024/01/20 07:12:24;;;;;;;11.70;4.53;;;-3.90;99.90;;;;;;4212326;28;20478;-75
2024/01/20 07:14:26;;;;;;;9.27;4.00;;;-4.00;99.90;;;;;;4212121;28;20205;-74
2024/01/20 07:16:30;;;;;;;9.10;4.10;;;-4.00;99.90;;;;;;4213368;28;20661;-75
2024/01/20 07:18:31;;;;;;;9.73;4.20;;;-4.00;99.90;;;;;;4213344;28;20845;-75
2024/01/20 07:20:35;;;;;;;12.77;4.35;;;-4.00;99.90;;;;;;4213017;28;21096;-75
2024/01/20 07:22:36;;;;;;;9.80;4.37;;;-4.00;99.90;;;;;;4213288;28;20205;-74
2024/01/20 07:24:38;;;;;;;8.87;3.83;;;-4.00;99.90;;;;;;4194551;28;20484;-75
2024/01/20 07:26:39;;;;;;;9.10;4.07;;;-4.00;99.90;;;;;;4194647;28;20276;-75
2024/01/20 07:28:41;;;;;;;10.40;3.93;;;-4.00;99.90;;;;;;4212722;28;20482;-75
2024/01/20 07:30:43;;;;;;;10.00;4.13;;;-4.10;99.90;;;;;;4212827;28;20570;-75
2024/01/20 07:32:45;;;;;;;13.43;4.07;;;-4.10;99.90;;;;;;4208721;28;20201;-75
2024/01/20 07:34:47;;;;;;;10.30;3.72;;;-4.10;99.90;;;;;;4210065;28;20451;-74
2024/01/20 07:36:49;;;;;;;9.02;4.03;;;-4.10;99.90;;;;;;4211837;28;20231;-74
2024/01/20 07:38:51;;;;;;;9.67;4.03;;;-4.10;99.90;;;;;;4215525;28;20255;-75
2024/01/20 07:40:54;;;;;;;9.90;3.60;;;-4.10;99.90;;;;;;4211875;28;20522;-74
2024/01/20 07:42:56;;;;;;;10.67;4.30;;;-4.10;99.90;;;;;;4212368;28;20459;-75
2024/01/20 07:44:58;;;;;;;10.30;4.28;;;-4.10;99.90;;;;;;4190682;28;20957;-75
2024/01/20 07:47:00;;;;;;;10.97;4.63;;;-4.10;99.90;;;;;;4210925;28;20255;-74
2024/01/20 07:49:03;;;;;;;10.27;4.13;;;-4.10;99.90;;;;;;4211908;28;20487;-75
2024/01/20 07:51:05;;;;;;;10.70;4.30;;;-4.00;99.90;;;;;;4212467;28;20250;-75
2024/01/20 07:53:06;;;;;;;17.70;6.65;;;-4.00;99.90;;;;;;4211278;28;20451;-74
2024/01/20 07:55:09;;;;;;;14.27;5.60;;;-4.00;99.90;;;;;;4211018;28;20643;-74
2024/01/20 07:57:12;;;;;;;11.07;4.40;;;-4.00;99.90;;;;;;4212293;28;20471;-74
2024/01/20 07:59:14;;;;;;;8.65;3.78;;;-4.00;99.90;;;;;;4212298;28;20490;-74
2024/01/20 08:01:16;;;;;;;10.93;4.30;;;-4.00;99.90;;;;;;4194227;28;20225;-74
2024/01/20 08:03:18;;;;;;;11.70;4.88;;;-4.00;99.90;;;;;;4206690;28;20194;-75
2024/01/20 08:05:21;;;;;;;9.98;4.68;;;-3.90;99.90;;;;;;4210158;28;20997;-75
2024/01/20 08:07:24;;;;;;;12.00;4.47;;;-3.90;99.90;;;;;;4212208;28;20225;-74
2024/01/20 08:09:26;;;;;;;12.40;5.03;;;-4.00;99.90;;;;;;4207258;28;20450;-75
2024/01/20 08:11:28;;;;;;;9.43;4.43;;;-3.90;99.90;;;;;;4210296;28;20539;-75
2024/01/20 08:13:32;;;;;;;10.65;4.63;;;-3.90;99.90;;;;;;4213379;28;20451;-74
2024/01/20 08:15:34;;;;;;;10.30;4.20;;;-3.90;99.90;;;;;;4194595;28;20302;-75
2024/01/20 08:17:35;;;;;;;10.30;4.63;;;-3.90;99.90;;;;;;4209695;28;20470;-74
2024/01/20 08:19:37;;;;;;;11.43;4.77;;;-3.80;99.90;;;;;;4210949;28;20443;-74
2024/01/20 08:21:40;;;;;;;11.20;4.87;;;-3.80;99.90;;;;;;4193657;28;20198;-74
2024/01/20 08:23:41;;;;;;;17.67;5.45;;;-3.80;99.90;;;;;;4186928;28;20483;-75
2024/01/20 08:25:43;;;;;;;10.20;4.80;;;-3.80;99.90;;;;;;4211384;28;20193;-75
2024/01/20 08:27:45;;;;;;;9.77;4.23;;;-3.70;99.90;;;;;;4210287;28;20241;-75
2024/01/20 08:29:47;;;;;;;9.90;4.55;;;-3.70;99.90;;;;;;4211946;28;20907;-74
2024/01/20 08:31:49;;;;;;;13.80;5.20;;;-3.70;99.90;;;;;;4208727;28;20297;-75
2024/01/20 08:33:51;;;;;;;13.50;4.67;;;-3.60;99.90;;;;;;4192888;28;20488;-74
2024/01/20 08:35:54;;;;;;;12.75;4.55;;;-3.60;99.90;;;;;;4209394;28;20549;-74
2024/01/20 08:37:57;;;;;;;12.53;5.10;;;-3.60;99.90;;;;;;4208950;28;20225;-74
2024/01/20 08:39:59;;;;;;;11.97;4.33;;;-3.60;99.90;;;;;;4209925;28;20868;-74
2024/01/20 08:42:01;;;;;;;10.40;4.13;;;-3.60;99.90;;;;;;4209969;28;20884;-74
2024/01/20 08:44:03;;;;;;;10.32;4.30;;;-3.60;99.90;;;;;;4193655;28;20854;-75
2024/01/20 08:46:04;;;;;;;11.18;4.45;;;-3.60;99.90;;;;;;4210881;28;21125;-74
2024/01/20 08:48:07;;;;;;;10.77;5.13;;;-3.60;99.90;;;;;;4210698;28;20229;-75
2024/01/20 08:50:10;;;;;;;13.70;4.43;;;-3.50;99.90;;;;;;4209980;28;20245;-74
2024/01/20 08:52:12;;;;;;;12.25;4.85;;;-3.60;99.90;;;;;;4210613;28;20505;-75
2024/01/20 08:54:18;;;;;;;9.55;4.40;;;-3.50;99.90;;;;;;4213225;28;20201;-74
2024/01/20 08:56:20;;;;;;;12.90;4.57;;;-3.00;99.90;;;;;;4210172;28;20205;-74
2024/01/20 08:58:21;;;;;;;14.63;5.00;;;-3.40;99.90;;;;;;4210485;28;20577;-74
2024/01/20 09:00:23;;;;;;;11.87;4.60;;;-3.40;99.90;;;;;;4195404;28;20444;-75
2024/01/20 09:02:25;;;;;;;12.03;5.00;;;-3.40;99.90;;;;;;4194235;28;20448;-74
2024/01/20 09:04:27;;;;;;;12.13;4.90;;;-3.40;99.90;;;;;;4211656;28;20541;-74
2024/01/20 09:06:29;;;;;;;13.20;4.93;;;-3.40;99.90;;;;;;4210701;28;20486;-74
2024/01/20 09:08:31;;;;;;;10.02;4.78;;;-3.30;99.90;;;;;;4192170;28;20264;-73
2024/01/20 09:10:35;;;;;;;12.90;4.90;;;-3.30;99.90;;;;;;4212812;28;20233;-76
2024/01/20 09:12:37;;;;;;;8.03;4.07;;;-3.30;99.90;;;;;;4213050;28;20451;-74
2024/01/20 09:14:39;;;;;;;11.30;4.60;;;-3.20;99.90;;;;;;4190745;28;20487;-76
2024/01/20 09:16:41;;;;;;;13.53;5.23;;;-3.20;99.90;;;;;;4200406;28;20447;-76
2024/01/20 09:18:43;;;;;;;11.27;4.47;;;-3.20;99.90;;;;;;4210294;28;20488;-74
2024/01/20 09:20:44;;;;;;;10.60;4.20;;;-3.10;99.90;;;;;;4209448;28;20443;-74
2024/01/20 09:22:46;;;;;;;11.50;4.67;;;-3.10;99.90;;;;;;4189575;28;20464;-74
2024/01/20 09:24:48;;;;;;;11.03;4.77;;;-3.10;99.90;;;;;;4184161;28;20445;-74
2024/01/20 09:26:51;;;;;;;11.97;5.30;;;-3.00;99.90;;;;;;4205279;28;20462;-76
2024/01/20 09:28:53;;;;;;;11.13;5.00;;;-3.00;99.90;;;;;;4211683;28;20447;-74
2024/01/20 09:30:55;;;;;;;18.40;5.30;;;-3.00;99.90;;;;;;4190361;28;20476;-75
2024/01/20 09:32:57;;;;;;;10.83;4.93;;;-2.90;99.90;;;;;;4193734;28;21028;-74
2024/01/20 09:34:58;;;;;;;10.43;4.00;;;-2.90;99.90;;;;;;4208642;28;20479;-74
2024/01/20 09:36:59;;;;;;;10.83;4.83;;;-2.90;99.90;;;;;;4214162;28;21073;-74
2024/01/20 09:39:02;;;;;;;12.73;5.17;;;-2.80;99.90;;;;;;4213473;28;20454;-74
2024/01/20 09:41:09;;;;;;;9.10;4.87;;;-2.70;99.90;;;;;;4210206;28;20676;-74
2024/01/20 09:43:13;;;;;;;14.87;5.50;;;-2.70;99.90;;;;;;4211907;28;20533;-74
2024/01/20 09:45:15;;;;;;;13.53;4.73;;;-2.70;99.90;;;;;;4190847;28;20483;-74
2024/01/20 09:47:17;;;;;;;12.87;5.13;;;-2.60;99.90;;;;;;4208601;28;20582;-74
2024/01/20 09:49:19;;;;;;;14.93;5.10;;;-2.50;99.90;;;;;;4209742;28;20443;-74
2024/01/20 09:51:28;;;;;;;12.90;4.43;;;-2.50;99.90;;;;;;4209151;28;20515;-74
2024/01/20 09:53:30;;;;;;;8.87;4.10;;;-2.40;99.90;;;;;;4193542;28;20447;-74
2024/01/20 09:55:31;;;;;;;12.23;4.67;;;-2.40;99.90;;;;;;4211090;28;20443;-74
2024/01/20 09:57:35;;;;;;;12.07;5.20;;;-2.40;99.90;;;;;;4189497;28;20477;-74
2024/01/20 09:59:39;;;;;;;13.73;5.23;;;-2.40;99.90;;;;;;4209082;28;20475;-74
2024/01/20 10:01:42;;;;;;;13.30;5.60;;;-2.30;99.90;;;;;;4206233;28;20507;-74
2024/01/20 10:03:44;;;;;;;11.60;5.00;;;-2.30;99.90;;;;;;4193554;28;20448;-74
2024/01/20 10:05:46;;;;;;;10.17;4.13;;;-2.30;99.90;;;;;;4204561;28;20485;-74
2024/01/20 10:07:48;;;;;;;9.97;4.40;;;-2.20;99.90;;;;;;4201772;28;20554;-75
2024/01/20 10:09:50;;;;;;;11.60;4.55;;;-2.20;99.90;;;;;;4202403;28;20457;-74
2024/01/20 10:11:52;;;;;;;11.67;4.63;;;-2.20;99.90;;;;;;4208996;28;20441;-74
2024/01/20 10:13:55;;;;;;;10.60;4.60;;;-2.10;99.90;;;;;;4211931;28;20499;-74
2024/01/20 10:15:59;;;;;;;11.47;4.70;;;-2.10;99.90;;;;;;4215296;28;20454;-76
2024/01/20 10:18:05;;;;;;;10.67;4.80;;;-2.10;99.90;;;;;;4213922;28;20514;-74
2024/01/20 10:20:07;;;;;;;10.67;4.37;;;-2.00;99.90;;;;;;4195274;28;20443;-74
2024/01/20 10:22:09;;;;;;;9.50;4.77;;;-2.00;99.90;;;;;;4214286;28;20838;-74
2024/01/20 10:24:11;;;;;;;10.27;4.27;;;-2.00;99.90;;;;;;4213343;28;20456;-74
2024/01/20 10:26:13;;;;;;;13.33;5.13;;;-2.00;99.90;;;;;;4214561;28;20453;-74
2024/01/20 10:28:15;;;;;;;10.33;4.97;;;-2.00;99.90;;;;;;4195233;28;20881;-74
2024/01/20 10:30:17;;;;;;;9.10;4.40;;;-1.90;99.90;;;;;;4195799;28;20492;-74